Wetterstation Vordersexau
Wetterdaten: Woche 06.02.12 - 12.02.12 (KW6)
Datum Zeit Temp. A. Feuchte A. Luftdruck Regen Wind Richtung Taupunkt Windchill Windben
06.02.2012 00:00 -10,9 C 70 % 1028,1 hPa 0,0 l/m 6,5 km/h O-SO -15,3 C -11,0 C 3,6 km/h
06.02.2012 01:00 -11,6 C 69 % 1028,4 hPa 0,0 l/m 0,0 km/h O -16,1 C -11,6 C 0,0 km/h
06.02.2012 02:00 -12,1 C 70 % 1028,5 hPa 0,0 l/m 0,0 km/h O-SO -16,4 C -12,1 C 0,0 km/h
06.02.2012 03:00 -12,4 C 72 % 1028,2 hPa 0,0 l/m 0,0 km/h NO -16,4 C -12,4 C 0,0 km/h
06.02.2012 04:00 -12,6 C 74 % 1028,1 hPa 0,0 l/m 0,0 km/h NO -16,2 C -12,6 C 0,0 km/h
06.02.2012 05:00 -13,7 C 74 % 1028,4 hPa 0,0 l/m 0,0 km/h O-NO -17,3 C -13,7 C 0,0 km/h
06.02.2012 06:00 -14,1 C 76 % 1028,5 hPa 0,0 l/m 0,0 km/h O-NO -17,4 C -14,1 C 0,0 km/h
06.02.2012 07:00 -15,0 C 78 % 1029,0 hPa 0,0 l/m 0,0 km/h NO -18,0 C -15,0 C 0,0 km/h
06.02.2012 08:00 -15,1 C 79 % 1029,2 hPa 0,0 l/m 0,0 km/h O-SO -17,9 C -15,1 C 0,0 km/h
06.02.2012 09:00 -6,2 C 73 % 1029,4 hPa 0,0 l/m 0,0 km/h W-NW -10,2 C -6,2 C 0,0 km/h
06.02.2012 10:00 -3,0 C 57 % 1029,4 hPa 0,0 l/m 0,0 km/h N -10,3 C -3,0 C 0,0 km/h
06.02.2012 11:00 -1,2 C 50 % 1029,1 hPa 0,0 l/m 0,0 km/h SW -10,3 C -1,2 C 0,0 km/h
06.02.2012 12:00 -2,1 C 47 % 1028,7 hPa 0,0 l/m 13,6 km/h W -11,9 C -8,6 C 7,6 km/h
06.02.2012 13:00 -1,8 C 47 % 1028,1 hPa 0,0 l/m 1,3 km/h N-NW -11,6 C -1,8 C 0,7 km/h
06.02.2012 14:00 -1,3 C 44 % 1027,5 hPa 0,0 l/m 2,6 km/h NW -11,9 C -1,3 C 1,4 km/h
06.02.2012 15:00 0,3 C 40 % 1027,2 hPa 0,0 l/m 6,5 km/h N -11,7 C 0,2 C 3,6 km/h
06.02.2012 16:00 -0,5 C 41 % 1027,5 hPa 0,0 l/m 24,0 km/h N-NO -12,1 C -12,0 C 13,3 km/h
06.02.2012 17:00 -5,6 C 49 % 1027,8 hPa 0,0 l/m 0,0 km/h NO -14,6 C -5,6 C 0,0 km/h
06.02.2012 18:00 -8,4 C 54 % 1028,5 hPa 0,0 l/m 0,0 km/h NO -16,0 C -8,4 C 0,0 km/h
06.02.2012 19:00 -8,8 C 54 % 1028,7 hPa 0,0 l/m 0,0 km/h NO -16,4 C -8,8 C 0,0 km/h
06.02.2012 20:00 -10,0 C 58 % 1029,0 hPa 0,0 l/m 0,0 km/h SO -16,7 C -10,0 C 0,0 km/h
06.02.2012 21:00 -11,9 C 62 % 1029,0 hPa 0,0 l/m 0,0 km/h O-SO -17,7 C -11,9 C 0,0 km/h
06.02.2012 22:00 -12,9 C 64 % 1028,8 hPa 0,0 l/m 0,0 km/h O -18,2 C -12,9 C 0,0 km/h
06.02.2012 23:00 -12,4 C 68 % 1028,9 hPa 0,0 l/m 0,0 km/h O-SO -17,1 C -12,4 C 0,0 km/h
07.02.2012 00:00 -13,5 C 69 % 1029,1 hPa 0,0 l/m 0,0 km/h O-SO -17,9 C -13,5 C 0,0 km/h
07.02.2012 01:00 -14,4 C 72 % 1029,2 hPa 0,0 l/m 0,0 km/h O-SO -18,3 C -14,4 C 0,0 km/h
07.02.2012 02:00 -15,0 C 74 % 1029,2 hPa 0,0 l/m 0,0 km/h N-NO -18,6 C -15,0 C 0,0 km/h
07.02.2012 03:00 -14,2 C 76 % 1028,8 hPa 0,0 l/m 0,0 km/h O-SO -17,5 C -14,2 C 0,0 km/h
07.02.2012 04:00 -15,1 C 77 % 1028,8 hPa 0,0 l/m 0,0 km/h O-SO -18,2 C -15,1 C 0,0 km/h
07.02.2012 05:00 -15,5 C 77 % 1028,4 hPa 0,0 l/m 0,0 km/h O-SO -18,6 C -15,5 C 0,0 km/h
07.02.2012 06:00 -15,6 C 78 % 1028,6 hPa 0,0 l/m 0,0 km/h O-SO -18,5 C -15,6 C 0,0 km/h
07.02.2012 07:00 -14,4 C 79 % 1028,7 hPa 0,0 l/m 0,0 km/h O-SO -17,2 C -14,4 C 0,0 km/h
07.02.2012 08:00 -12,1 C 78 % 1028,4 hPa 0,0 l/m 0,0 km/h W-SW -15,1 C -12,1 C 0,0 km/h
07.02.2012 09:00 -10,4 C 75 % 1028,3 hPa 0,0 l/m 1,9 km/h O-NO -14,0 C -10,4 C 1,1 km/h
07.02.2012 10:00 -7,9 C 65 % 1028,2 hPa 0,0 l/m 0,0 km/h N-NO -13,3 C -7,9 C 0,0 km/h
07.02.2012 11:00 -6,1 C 57 % 1027,8 hPa 0,0 l/m 8,4 km/h N -13,2 C -8,5 C 4,7 km/h
07.02.2012 12:00 -4,4 C 55 % 1027,4 hPa 0,0 l/m 8,4 km/h N -12,0 C -6,7 C 4,7 km/h
07.02.2012 13:00 -5,2 C 56 % 1026,9 hPa 0,0 l/m 7,1 km/h N-NO -12,6 C -6,0 C 4,0 km/h
07.02.2012 14:00 -4,6 C 55 % 1026,7 hPa 0,0 l/m 18,1 km/h N-NO -12,2 C -14,5 C 10,1 km/h
07.02.2012 15:00 -6,4 C 60 % 1026,8 hPa 0,0 l/m 1,9 km/h N-NO -12,9 C -6,4 C 1,1 km/h
07.02.2012 16:00 -6,1 C 57 % 1027,7 hPa 0,0 l/m 0,0 km/h NO -13,2 C -6,1 C 0,0 km/h
07.02.2012 17:00 -8,4 C 60 % 1028,3 hPa 0,0 l/m 0,0 km/h N -14,7 C -8,4 C 0,0 km/h
07.02.2012 18:00 -9,1 C 63 % 1028,7 hPa 0,0 l/m 0,6 km/h N-NO -14,8 C -9,1 C 0,4 km/h
07.02.2012 19:00 -8,8 C 64 % 1028,5 hPa 0,0 l/m 0,0 km/h N -14,3 C -8,8 C 0,0 km/h
07.02.2012 20:00 -8,5 C 65 % 1028,3 hPa 0,0 l/m 0,0 km/h N -13,9 C -8,5 C 0,0 km/h
07.02.2012 21:00 -8,4 C 66 % 1028,3 hPa 0,0 l/m 0,0 km/h N -13,6 C -8,4 C 0,0 km/h
07.02.2012 22:00 -8,5 C 67 % 1028,1 hPa 0,0 l/m 0,0 km/h NO -13,5 C -8,5 C 0,0 km/h
07.02.2012 23:00 -8,6 C 68 % 1027,8 hPa 0,0 l/m 2,6 km/h N-NO -13,4 C -8,6 C 1,4 km/h
08.02.2012 00:00 -8,4 C 68 % 1027,6 hPa 0,0 l/m 0,0 km/h N-NO -13,2 C -8,4 C 0,0 km/h
08.02.2012 01:00 -7,9 C 68 % 1027,7 hPa 0,0 l/m 0,0 km/h NO -12,7 C -7,9 C 0,0 km/h
08.02.2012 02:00 -7,8 C 69 % 1027,5 hPa 0,0 l/m 4,5 km/h N-NO -12,5 C -7,8 C 2,5 km/h
08.02.2012 03:00 -7,8 C 69 % 1027,2 hPa 0,0 l/m 8,4 km/h N-NO -12,5 C -10,3 C 4,7 km/h
08.02.2012 04:00 -7,9 C 70 % 1027,1 hPa 0,0 l/m 4,5 km/h O-NO -12,4 C -7,9 C 2,5 km/h
08.02.2012 05:00 -8,4 C 71 % 1027,2 hPa 0,0 l/m 0,0 km/h N-NO -12,7 C -8,4 C 0,0 km/h
08.02.2012 06:00 -8,9 C 72 % 1027,6 hPa 0,0 l/m 0,0 km/h NO -13,0 C -8,9 C 0,0 km/h
08.02.2012 07:00 -10,5 C 74 % 1028,0 hPa 0,0 l/m 0,0 km/h NO -14,2 C -10,5 C 0,0 km/h
08.02.2012 08:00 -10,7 C 77 % 1028,4 hPa 0,0 l/m 0,0 km/h O-NO -13,9 C -10,7 C 0,0 km/h
08.02.2012 09:00 -6,7 C 79 % 1028,7 hPa 0,0 l/m 0,0 km/h S-SO -9,7 C -6,7 C 0,0 km/h
08.02.2012 10:00 -1,9 C 63 % 1028,8 hPa 0,0 l/m 1,9 km/h SO -8,0 C -1,9 C 1,1 km/h
08.02.2012 11:00 -0,4 C 55 % 1028,7 hPa 0,0 l/m 0,0 km/h O-SO -8,3 C -0,4 C 0,0 km/h
08.02.2012 12:00 1,4 C 47 % 1028,2 hPa 0,0 l/m 0,0 km/h N-NO -8,7 C 1,4 C 0,0 km/h
08.02.2012 13:00 1,8 C 45 % 1028,3 hPa 0,0 l/m 0,0 km/h O-NO -8,8 C 1,8 C 0,0 km/h
08.02.2012 14:00 1,8 C 45 % 1028,1 hPa 0,0 l/m 0,0 km/h O -8,8 C 1,8 C 0,0 km/h
08.02.2012 15:00 4,1 C 42 % 1028,3 hPa 0,0 l/m 0,0 km/h O-SO -7,6 C 4,1 C 0,0 km/h
08.02.2012 16:00 2,7 C 43 % 1028,5 hPa 0,0 l/m 0,0 km/h NW -8,6 C 2,7 C 0,0 km/h
08.02.2012 17:00 -3,3 C 55 % 1029,2 hPa 0,0 l/m 2,6 km/h S-SW -11,0 C -3,3 C 1,4 km/h
08.02.2012 18:00 -6,2 C 66 % 1029,5 hPa 0,0 l/m 0,0 km/h SW -11,5 C -6,2 C 0,0 km/h
08.02.2012 19:00 -6,9 C 71 % 1029,9 hPa 0,0 l/m 0,0 km/h S -11,2 C -6,9 C 0,0 km/h
08.02.2012 20:00 -8,7 C 73 % 1030,3 hPa 0,0 l/m 0,0 km/h O-NO -12,6 C -8,7 C 0,0 km/h
08.02.2012 21:00 -9,6 C 76 % 1030,7 hPa 0,0 l/m 0,0 km/h O-SO -13,0 C -9,6 C 0,0 km/h
08.02.2012 22:00 -10,2 C 78 % 1030,7 hPa 0,0 l/m 0,0 km/h SO -13,3 C -10,2 C 0,0 km/h
08.02.2012 23:00 -10,7 C 79 % 1030,9 hPa 0,0 l/m 0,0 km/h O-SO -13,6 C -10,7 C 0,0 km/h
09.02.2012 00:00 -10,8 C 81 % 1031,6 hPa 0,0 l/m 0,0 km/h NO -13,4 C -10,8 C 0,0 km/h
09.02.2012 01:00 -11,6 C 82 % 1031,5 hPa 0,0 l/m 0,0 km/h NO -14,0 C -11,6 C 0,0 km/h
09.02.2012 02:00 -11,9 C 81 % 1031,5 hPa 0,0 l/m 0,0 km/h N-NO -14,5 C -11,9 C 0,0 km/h
09.02.2012 03:00 -11,4 C 82 % 1031,6 hPa 0,0 l/m 0,0 km/h N-NO -13,8 C -11,4 C 0,0 km/h
09.02.2012 04:00 -12,2 C 82 % 1030,9 hPa 0,0 l/m 0,0 km/h O -14,6 C -12,2 C 0,0 km/h
09.02.2012 05:00 -12,1 C 83 % 1031,0 hPa 0,0 l/m 0,0 km/h O -14,4 C -12,1 C 0,0 km/h
09.02.2012 06:00 -12,2 C 83 % 1031,1 hPa 0,0 l/m 0,0 km/h O-NO -14,5 C -12,2 C 0,0 km/h
09.02.2012 07:00 -12,8 C 83 % 1030,8 hPa 0,0 l/m 0,0 km/h O-NO -15,1 C -12,8 C 0,0 km/h
09.02.2012 08:00 -12,4 C 83 % 1031,0 hPa 0,0 l/m 0,0 km/h NO -14,7 C -12,4 C 0,0 km/h
09.02.2012 09:00 -7,0 C 83 % 1031,1 hPa 0,0 l/m 0,0 km/h W-SW -9,4 C -7,0 C 0,0 km/h
09.02.2012 10:00 -2,8 C 74 % 1030,8 hPa 0,0 l/m 0,0 km/h N-NW -6,8 C -2,8 C 0,0 km/h
09.02.2012 11:00 -0,2 C 63 % 1030,4 hPa 0,0 l/m 0,0 km/h W-NW -6,4 C -0,2 C 0,0 km/h
09.02.2012 12:00 0,3 C 58 % 1029,7 hPa 0,0 l/m 0,0 km/h W -7,0 C 0,3 C 0,0 km/h
09.02.2012 13:00 -0,7 C 58 % 1029,0 hPa 0,0 l/m 7,8 km/h W-NW -7,9 C -2,2 C 4,3 km/h
09.02.2012 14:00 -1,3 C 59 % 1028,5 hPa 0,0 l/m 0,0 km/h W-NW -8,3 C -1,3 C 0,0 km/h
09.02.2012 15:00 -1,2 C 57 % 1028,3 hPa 0,0 l/m 0,0 km/h NO -8,6 C -1,2 C 0,0 km/h
09.02.2012 16:00 -3,2 C 63 % 1028,7 hPa 0,0 l/m 0,0 km/h N-NO -9,2 C -3,2 C 0,0 km/h
09.02.2012 17:00 -4,2 C 61 % 1028,7 hPa 0,0 l/m 0,0 km/h N-NO -10,6 C -4,2 C 0,0 km/h
09.02.2012 18:00 -4,4 C 64 % 1029,1 hPa 0,0 l/m 0,0 km/h N-NO -10,2 C -4,4 C 0,0 km/h
09.02.2012 19:00 -5,1 C 71 % 1029,7 hPa 0,0 l/m 3,2 km/h N-NO -9,5 C -5,1 C 1,8 km/h
09.02.2012 20:00 -5,5 C 75 % 1030,1 hPa 0,0 l/m 0,0 km/h N-NO -9,2 C -5,5 C 0,0 km/h
09.02.2012 21:00 -7,2 C 78 % 1030,6 hPa 0,0 l/m 0,0 km/h N-NO -10,4 C -7,2 C 0,0 km/h
09.02.2012 22:00 -7,1 C 81 % 1030,9 hPa 0,0 l/m 0,0 km/h W -9,8 C -7,1 C 0,0 km/h
09.02.2012 23:00 -8,2 C 82 % 1031,0 hPa 0,0 l/m 0,0 km/h W-SW -10,7 C -8,2 C 0,0 km/h
10.02.2012 00:00 -9,5 C 83 % 1030,9 hPa 0,0 l/m 0,0 km/h SO -11,8 C -9,5 C 0,0 km/h
10.02.2012 01:00 -9,3 C 84 % 1031,1 hPa 0,0 l/m 0,0 km/h O-SO -11,5 C -9,3 C 0,0 km/h
10.02.2012 02:00 -9,6 C 84 % 1030,8 hPa 0,0 l/m 0,0 km/h O-SO -11,8 C -9,6 C 0,0 km/h
10.02.2012 03:00 -10,8 C 83 % 1030,7 hPa 0,0 l/m 0,0 km/h O-SO -13,1 C -10,8 C 0,0 km/h
10.02.2012 04:00 -11,6 C 83 % 1030,6 hPa 0,0 l/m 0,0 km/h O-SO -13,9 C -11,6 C 0,0 km/h
10.02.2012 05:00 -12,4 C 83 % 1030,5 hPa 0,0 l/m 0,0 km/h O-SO -14,7 C -12,4 C 0,0 km/h
10.02.2012 06:00 -11,3 C 84 % 1030,3 hPa 0,0 l/m 0,0 km/h O-SO -13,5 C -11,3 C 0,0 km/h
10.02.2012 07:00 -10,6 C 84 % 1030,7 hPa 0,0 l/m 0,0 km/h O-SO -12,8 C -10,6 C 0,0 km/h
10.02.2012 08:00 -10,2 C 85 % 1030,5 hPa 0,0 l/m 0,0 km/h SO -12,2 C -10,2 C 0,0 km/h
10.02.2012 09:00 -6,7 C 86 % 1030,6 hPa 0,0 l/m 0,0 km/h N-NO -8,6 C -6,7 C 0,0 km/h
10.02.2012 10:00 -4,4 C 80 % 1030,4 hPa 0,0 l/m 0,0 km/h N -7,3 C -4,4 C 0,0 km/h
10.02.2012 11:00 -3,2 C 69 % 1030,6 hPa 0,0 l/m 5,2 km/h NO -8,1 C -3,2 C 2,9 km/h
10.02.2012 12:00 -1,9 C 61 % 1030,2 hPa 0,0 l/m 0,0 km/h O-SO -8,4 C -1,9 C 0,0 km/h
10.02.2012 13:00 -1,5 C 60 % 1029,8 hPa 0,0 l/m 0,0 km/h O-NO -8,2 C -1,5 C 0,0 km/h
10.02.2012 14:00 0,8 C 49 % 1029,5 hPa 0,0 l/m 6,5 km/h O-SO -8,7 C 0,7 C 3,6 km/h
10.02.2012 15:00 0,6 C 47 % 1029,3 hPa 0,0 l/m 4,5 km/h NO -9,4 C 0,6 C 2,5 km/h
10.02.2012 16:00 -0,3 C 46 % 1029,0 hPa 0,0 l/m 0,6 km/h O -10,5 C -0,3 C 0,4 km/h
10.02.2012 17:00 -5,1 C 54 % 1029,0 hPa 0,0 l/m 0,0 km/h N-NO -12,9 C -5,1 C 0,0 km/h
10.02.2012 18:00 -6,9 C 60 % 1029,4 hPa 0,0 l/m 0,0 km/h NO -13,3 C -6,9 C 0,0 km/h
10.02.2012 19:00 -7,9 C 63 % 1029,3 hPa 0,0 l/m 0,0 km/h N -13,7 C -7,9 C 0,0 km/h
10.02.2012 20:00 -8,4 C 65 % 1029,2 hPa 0,0 l/m 13,6 km/h N -13,8 C -16,1 C 7,6 km/h
10.02.2012 21:00 -9,1 C 67 % 1029,1 hPa 0,0 l/m 0,0 km/h N-NO -14,1 C -9,1 C 0,0 km/h
10.02.2012 22:00 -8,9 C 67 % 1028,9 hPa 0,0 l/m 0,0 km/h O-SO -13,9 C -8,9 C 0,0 km/h
10.02.2012 23:00 -10,2 C 68 % 1028,4 hPa 0,0 l/m 0,0 km/h SO -14,9 C -10,2 C 0,0 km/h
11.02.2012 00:00 -11,8 C 74 % 1028,0 hPa 0,0 l/m 0,0 km/h N-NO -15,5 C -11,8 C 0,0 km/h
11.02.2012 01:00 -10,2 C 76 % 1027,2 hPa 0,0 l/m 0,0 km/h NO -13,6 C -10,2 C 0,0 km/h
11.02.2012 02:00 -9,6 C 73 % 1026,8 hPa 0,0 l/m 0,0 km/h N -13,5 C -9,6 C 0,0 km/h
11.02.2012 03:00 -9,7 C 73 % 1026,5 hPa 0,0 l/m 0,0 km/h N-NO -13,6 C -9,7 C 0,0 km/h
11.02.2012 04:00 -9,7 C 73 % 1026,0 hPa 0,0 l/m 0,0 km/h N -13,6 C -9,7 C 0,0 km/h
11.02.2012 05:00 -9,8 C 74 % 1025,9 hPa 0,0 l/m 0,0 km/h O-SO -13,5 C -9,8 C 0,0 km/h
11.02.2012 06:00 -9,9 C 74 % 1025,7 hPa 0,0 l/m 0,0 km/h N-NO -13,6 C -9,9 C 0,0 km/h
11.02.2012 07:00 -10,7 C 73 % 1025,7 hPa 0,0 l/m 0,0 km/h O -14,6 C -10,7 C 0,0 km/h
11.02.2012 08:00 -9,9 C 73 % 1025,6 hPa 0,0 l/m 0,0 km/h W -13,8 C -9,9 C 0,0 km/h
11.02.2012 09:00 -7,1 C 70 % 1025,5 hPa 0,0 l/m 1,3 km/h W -11,6 C -7,1 C 0,7 km/h
11.02.2012 10:00 -3,5 C 60 % 1025,1 hPa 0,0 l/m 18,1 km/h SW -10,1 C -13,1 C 10,1 km/h
11.02.2012 11:00 -2,9 C 55 % 1024,7 hPa 0,0 l/m 6,5 km/h NO -10,6 C -3,0 C 3,6 km/h
11.02.2012 12:00 -0,5 C 49 % 1024,4 hPa 0,0 l/m 0,0 km/h NO -9,9 C -0,5 C 0,0 km/h
11.02.2012 13:00 -0,6 C 46 % 1024,1 hPa 0,0 l/m 3,2 km/h O-NO -10,8 C -0,6 C 1,8 km/h
11.02.2012 14:00 -0,2 C 44 % 1024,2 hPa 0,0 l/m 19,4 km/h NO -10,9 C -9,6 C 10,8 km/h
11.02.2012 15:00 0,9 C 42 % 1024,4 hPa 0,0 l/m 0,0 km/h N-NO -10,5 C 0,9 C 0,0 km/h
11.02.2012 16:00 0,5 C 41 % 1024,6 hPa 0,0 l/m 0,0 km/h N-NO -11,2 C 0,5 C 0,0 km/h
11.02.2012 17:00 -4,5 C 49 % 1025,1 hPa 0,0 l/m 0,0 km/h NO -13,6 C -4,5 C 0,0 km/h
11.02.2012 18:00 -7,5 C 59 % 1026,2 hPa 0,0 l/m 0,0 km/h N-NO -14,1 C -7,5 C 0,0 km/h
11.02.2012 19:00 -7,8 C 62 % 1026,8 hPa 0,0 l/m 0,0 km/h N-NO -13,8 C -7,8 C 0,0 km/h
11.02.2012 20:00 -8,2 C 64 % 1027,2 hPa 0,0 l/m 0,0 km/h N-NO -13,8 C -8,2 C 0,0 km/h
11.02.2012 21:00 -8,8 C 66 % 1027,2 hPa 0,0 l/m 0,0 km/h O-NO -14,0 C -8,8 C 0,0 km/h
11.02.2012 22:00 -9,4 C 67 % 1027,6 hPa 0,0 l/m 0,0 km/h NO -14,4 C -9,4 C 0,0 km/h
11.02.2012 23:00 -11,2 C 69 % 1027,3 hPa 0,0 l/m 0,0 km/h O-SO -15,7 C -11,2 C 0,0 km/h
12.02.2012 00:00 -12,1 C 72 % 1027,1 hPa 0,0 l/m 0,0 km/h O-SO -16,1 C -12,1 C 0,0 km/h
12.02.2012 01:00 -13,1 C 76 % 1027,0 hPa 0,0 l/m 0,0 km/h O-SO -16,4 C -13,1 C 0,0 km/h
12.02.2012 02:00 -13,9 C 77 % 1027,1 hPa 0,0 l/m 0,0 km/h O-SO -17,0 C -13,9 C 0,0 km/h
12.02.2012 03:00 -14,2 C 78 % 1026,7 hPa 0,0 l/m 0,0 km/h SO -17,2 C -14,2 C 0,0 km/h
12.02.2012 04:00 -14,6 C 79 % 1026,8 hPa 0,0 l/m 0,0 km/h NO -17,4 C -14,6 C 0,0 km/h
12.02.2012 05:00 -13,9 C 80 % 1026,8 hPa 0,0 l/m 0,0 km/h NW -16,6 C -13,9 C 0,0 km/h
12.02.2012 06:00 -14,9 C 79 % 1026,9 hPa 0,0 l/m 0,0 km/h W -17,7 C -14,9 C 0,0 km/h
12.02.2012 07:00 -15,7 C 79 % 1027,0 hPa 0,0 l/m 0,0 km/h W -18,5 C -15,7 C 0,0 km/h
12.02.2012 08:00 -14,9 C 81 % 1027,3 hPa 0,0 l/m 0,0 km/h W -17,4 C -14,9 C 0,0 km/h
12.02.2012 09:00 -7,9 C 75 % 1027,6 hPa 0,0 l/m 0,0 km/h W -11,5 C -7,9 C 0,0 km/h
12.02.2012 10:00 -3,7 C 62 % 1027,7 hPa 0,0 l/m 0,0 km/h W -9,9 C -3,7 C 0,0 km/h
12.02.2012 11:00 -1,4 C 54 % 1027,7 hPa 0,0 l/m 0,0 km/h W -9,5 C -1,4 C 0,0 km/h
12.02.2012 12:00 -0,9 C 49 % 1026,9 hPa 0,0 l/m 1,9 km/h W -10,2 C -0,9 C 1,1 km/h
12.02.2012 13:00 -0,5 C 47 % 1025,8 hPa 0,0 l/m 1,3 km/h NW -10,4 C -0,5 C 0,7 km/h
12.02.2012 14:00 0,2 C 45 % 1025,5 hPa 0,0 l/m 2,6 km/h N-NW -10,3 C 0,2 C 1,4 km/h
12.02.2012 15:00 2,5 C 40 % 1025,1 hPa 0,0 l/m 2,6 km/h NW -9,7 C 2,5 C 1,4 km/h
12.02.2012 16:00 1,5 C 40 % 1025,2 hPa 0,0 l/m 1,3 km/h W-NW -10,6 C 1,5 C 0,7 km/h
12.02.2012 17:00 -2,5 C 46 % 1025,0 hPa 0,0 l/m 0,0 km/h N-NO -12,5 C -2,5 C 0,0 km/h
12.02.2012 18:00 -7,8 C 58 % 1025,5 hPa 0,0 l/m 0,0 km/h N-NO -14,6 C -7,8 C 0,0 km/h
12.02.2012 19:00 -9,1 C 65 % 1025,6 hPa 0,0 l/m 0,0 km/h N-NO -14,4 C -9,1 C 0,0 km/h
12.02.2012 20:00 -9,8 C 73 % 1026,0 hPa 0,0 l/m 0,0 km/h O-NO -13,7 C -9,8 C 0,0 km/h
12.02.2012 21:00 -10,6 C 73 % 1026,1 hPa 0,0 l/m 0,0 km/h O-NO -14,5 C -10,6 C 0,0 km/h
12.02.2012 22:00 -11,3 C 75 % 1026,3 hPa 0,0 l/m 0,0 km/h NO -14,8 C -11,3 C 0,0 km/h
12.02.2012 23:00 -12,1 C 77 % 1026,1 hPa 0,0 l/m 0,0 km/h O-NO -15,3 C -12,1 C 0,0 km/h
Min-Datum _ 12.02.12 06.02.12 11.02.12 - 06.02.12 - 07.02.12 10.02.12 06.02.12
_ Min-Zeit 07:30 15:30 13:30 - 01:30 - 05:30 20:30 01:30
Minimum _ -15,7 C 40 % 1024,1 hPa - 0,0 km/h - -18,6 C -16,1 C 0,0 km/h
Max-Datum _ 08.02.12 10.02.12 09.02.12 06.02.12 06.02.12 - 09.02.12 08.02.12 06.02.12
_ Max-Zeit 15:30 09:30 00:30 00:30 16:30 - 11:30 15:30 16:30
Maximum _ 4,1 C 86 % 1031,6 hPa 0,0 l/m 24,0 km/h
N-NO
- -6,4 C 4,1 C 13,3 km/h
N-NO
Durchschnitt _ -7,6 C 67 % 1028,3 hPa #0,0 l/m 1,3 km/h N-NO -13,0 C -8,0 C 0,7 km/h
www.sexauwetter.de